createdAt,value
2018-07-09T00:01:30.870Z,7.83
2018-07-09T00:04:02.340Z,8.00
2018-07-09T00:06:33.678Z,8.13
2018-07-09T00:11:39.746Z,9.73
2018-07-09T00:14:09.244Z,9.57
2018-07-09T00:16:38.573Z,11.07
2018-07-09T00:19:08.277Z,8.33
2018-07-09T00:21:41.576Z,12.00
2018-07-09T00:24:10.995Z,11.80
2018-07-09T00:26:41.538Z,10.47
2018-07-09T00:29:11.045Z,12.57
2018-07-09T00:31:43.357Z,10.33
2018-07-09T00:34:13.089Z,9.30
2018-07-09T00:36:42.545Z,12.17
2018-07-09T00:39:11.941Z,10.83
2018-07-09T00:41:44.739Z,10.13
2018-07-09T00:44:17.394Z,8.47
2018-07-09T00:46:56.859Z,11.53
2018-07-09T00:49:31.273Z,10.83
2018-07-09T00:52:00.839Z,10.67
2018-07-09T00:54:30.135Z,13.10
2018-07-09T00:56:59.629Z,10.07
2018-07-09T00:59:34.185Z,11.63
2018-07-09T01:02:03.633Z,14.50
2018-07-09T01:04:33.689Z,11.93
2018-07-09T01:07:04.415Z,12.97
2018-07-09T01:09:33.807Z,12.00
2018-07-09T01:12:10.111Z,8.93
2018-07-09T01:14:40.110Z,10.97
2018-07-09T01:17:11.605Z,8.60
2018-07-09T01:19:40.907Z,9.43
2018-07-09T01:22:10.107Z,12.13
2018-07-09T01:24:44.380Z,16.03
2018-07-09T01:27:14.647Z,12.87
2018-07-09T01:29:46.291Z,13.70
2018-07-09T01:32:16.884Z,15.13
2018-07-09T01:34:49.260Z,11.93
2018-07-09T01:37:19.907Z,12.70
2018-07-09T01:39:51.867Z,10.77
2018-07-09T01:42:26.072Z,11.47
2018-07-09T01:44:56.957Z,11.97
2018-07-09T01:47:29.229Z,15.40
2018-07-09T01:49:59.137Z,10.67
2018-07-09T01:52:28.897Z,17.30
2018-07-09T01:55:02.508Z,12.50
2018-07-09T01:57:32.115Z,13.43
2018-07-09T02:00:01.409Z,17.37
2018-07-09T02:02:31.342Z,12.90
2018-07-09T02:05:08.184Z,14.70
2018-07-09T02:07:38.841Z,15.73
2018-07-09T02:10:08.943Z,14.80
2018-07-09T02:12:38.823Z,13.73
2018-07-09T02:15:14.142Z,16.33
2018-07-09T02:17:46.300Z,20.20
2018-07-09T02:20:15.576Z,17.17
2018-07-09T02:22:45.178Z,12.13
2018-07-09T02:25:14.505Z,13.20
2018-07-09T02:30:18.416Z,15.07
2018-07-09T02:32:48.186Z,21.73
2018-07-09T02:35:18.550Z,15.27
2018-07-09T02:37:48.177Z,13.93
2018-07-09T02:40:19.745Z,16.17
2018-07-09T02:42:57.484Z,18.80
2018-07-09T02:48:05.189Z,14.23
2018-07-09T02:50:34.413Z,20.10
2018-07-09T02:53:03.539Z,18.20
2018-07-09T02:55:37.227Z,18.57
2018-07-09T02:58:11.470Z,17.17
2018-07-09T03:00:48.357Z,18.53
2018-07-09T03:03:24.597Z,12.37
2018-07-09T03:05:54.586Z,18.43
2018-07-09T03:08:25.436Z,14.50
2018-07-09T03:10:58.761Z,14.00
2018-07-09T03:13:29.888Z,16.03
2018-07-09T03:16:00.203Z,17.90
2018-07-09T03:18:29.488Z,16.80
2018-07-09T03:20:58.792Z,15.70
2018-07-09T03:23:28.003Z,14.57
2018-07-09T03:25:57.540Z,14.43
2018-07-09T03:28:27.965Z,17.40
2018-07-09T03:30:57.476Z,13.87
2018-07-09T03:33:26.660Z,19.70
2018-07-09T03:35:56.126Z,12.67
2018-07-09T03:38:25.605Z,15.47
2018-07-09T03:40:55.660Z,14.43
2018-07-09T03:43:25.070Z,14.53
2018-07-09T03:46:03.439Z,16.83
2018-07-09T03:48:35.541Z,15.13
2018-07-09T03:51:08.000Z,14.10
2018-07-09T03:53:38.174Z,17.50
2018-07-09T03:56:08.252Z,15.50
2018-07-09T03:58:37.787Z,14.83
2018-07-09T04:01:11.503Z,16.63
2018-07-09T04:03:46.544Z,18.10
2018-07-09T04:06:23.003Z,17.57
2018-07-09T04:08:53.365Z,16.33
2018-07-09T04:11:28.848Z,13.67
2018-07-09T04:14:05.342Z,18.20
2018-07-09T04:16:36.647Z,18.97
2018-07-09T04:19:09.367Z,14.80
2018-07-09T04:21:39.282Z,14.97
2018-07-09T04:24:08.581Z,16.43
2018-07-09T04:26:43.791Z,25.10
2018-07-09T04:29:14.686Z,17.80
2018-07-09T04:39:48.812Z,17.27
2018-07-09T04:42:20.020Z,15.60
2018-07-09T04:47:26.410Z,16.13
2018-07-09T04:49:57.454Z,17.33
2018-07-09T04:52:41.810Z,17.43
2018-07-09T04:55:14.420Z,14.97
2018-07-09T05:00:28.988Z,13.97
2018-07-09T05:03:08.377Z,15.40
2018-07-09T05:05:48.188Z,9.93
2018-07-09T05:08:18.873Z,10.43
2018-07-09T05:10:48.202Z,7.47
2018-07-09T05:13:25.284Z,11.73
2018-07-09T05:18:40.627Z,11.30
2018-07-09T05:21:10.009Z,6.93
2018-07-09T05:23:42.679Z,8.60
2018-07-09T05:26:12.276Z,8.23
2018-07-09T05:28:44.977Z,8.00
2018-07-09T05:31:17.861Z,9.87
2018-07-09T05:36:27.525Z,8.53
2018-07-09T05:38:57.951Z,7.53
2018-07-09T05:44:08.457Z,11.37
2018-07-09T05:49:23.028Z,9.83
2018-07-09T05:52:01.476Z,6.23
2018-07-09T05:54:40.519Z,9.23
2018-07-09T05:59:49.491Z,9.23
2018-07-09T06:02:18.858Z,7.57
2018-07-09T06:04:48.735Z,14.90
2018-07-09T06:07:18.688Z,13.43
2018-07-09T06:09:48.900Z,13.47
2018-07-09T06:12:18.220Z,10.60
2018-07-09T06:14:51.747Z,9.93
2018-07-09T06:17:34.873Z,10.53
2018-07-09T06:20:11.818Z,12.63
2018-07-09T06:22:54.851Z,11.83
2018-07-09T06:25:30.701Z,10.50
2018-07-09T06:28:00.085Z,13.63
2018-07-09T06:30:29.565Z,12.27
2018-07-09T06:32:58.874Z,18.20
2018-07-09T06:35:29.826Z,25.00
2018-07-09T06:37:59.398Z,11.80
2018-07-09T06:40:34.797Z,15.83
2018-07-09T06:43:07.337Z,14.37
2018-07-09T06:48:34.925Z,14.60
2018-07-09T06:51:07.513Z,16.97
2018-07-09T06:53:38.947Z,14.90
2018-07-09T06:56:10.919Z,14.00
2018-07-09T06:58:40.556Z,10.30
2018-07-09T07:01:11.227Z,16.47
2018-07-09T07:03:40.445Z,20.20
2018-07-09T07:06:11.608Z,17.93
2018-07-09T07:08:41.234Z,14.70
2018-07-09T07:11:12.955Z,12.27
2018-07-09T07:13:51.517Z,14.60
2018-07-09T07:16:27.542Z,15.00
2018-07-09T07:19:02.569Z,11.10
2018-07-09T07:21:34.574Z,15.47
2018-07-09T07:24:08.481Z,15.50
2018-07-09T07:26:46.178Z,17.50
2018-07-09T07:29:17.551Z,20.23
2018-07-09T07:34:30.274Z,16.23
2018-07-09T07:37:09.003Z,14.23
2018-07-09T07:39:40.428Z,14.53
2018-07-09T07:42:12.079Z,12.33
2018-07-09T07:44:43.587Z,12.77
2018-07-09T07:47:12.900Z,14.80
2018-07-09T07:49:42.202Z,14.23
2018-07-09T07:52:11.807Z,17.47
2018-07-09T07:54:48.890Z,14.80
2018-07-09T07:57:25.345Z,13.40
2018-07-09T08:00:10.578Z,14.57
2018-07-09T08:02:47.678Z,12.43
2018-07-09T08:05:19.048Z,15.10
2018-07-09T08:13:27.979Z,12.37
2018-07-09T08:15:50.533Z,12.27
2018-07-09T08:18:30.085Z,12.07
2018-07-09T08:21:10.818Z,11.23
2018-07-09T08:23:45.575Z,10.77
2018-07-09T08:26:18.036Z,13.17
2018-07-09T08:28:55.494Z,12.47
2018-07-09T08:31:25.425Z,10.60
2018-07-09T08:33:55.217Z,10.63
2018-07-09T08:36:25.021Z,10.77
2018-07-09T08:38:54.934Z,12.93
2018-07-09T08:41:24.646Z,13.57
2018-07-09T08:43:54.646Z,10.37
2018-07-09T08:46:24.177Z,14.73
2018-07-09T08:48:54.292Z,14.80
2018-07-09T08:51:23.875Z,13.67
2018-07-09T08:53:53.445Z,11.40
2018-07-09T08:56:23.148Z,9.67
2018-07-09T08:58:53.189Z,12.03
2018-07-09T09:01:22.638Z,11.27
2018-07-09T09:03:52.310Z,11.10
2018-07-09T09:06:22.307Z,14.13
2018-07-09T09:08:51.900Z,10.87
2018-07-09T09:11:21.824Z,8.87
2018-07-09T09:13:51.603Z,12.43
2018-07-09T09:16:21.041Z,12.87
2018-07-09T09:18:51.257Z,10.63
2018-07-09T09:21:20.862Z,11.63
2018-07-09T09:23:50.701Z,10.87
2018-07-09T09:26:20.432Z,13.03
2018-07-09T09:28:50.260Z,13.60
2018-07-09T09:31:19.991Z,14.23
2018-07-09T09:33:49.474Z,12.97
2018-07-09T09:36:19.181Z,11.63
2018-07-09T09:38:48.985Z,11.00
2018-07-09T09:41:18.393Z,10.83
2018-07-09T09:43:47.913Z,13.00
2018-07-09T09:46:17.621Z,11.70
2018-07-09T09:48:46.974Z,12.60
2018-07-09T09:51:16.871Z,13.70
2018-07-09T09:53:46.736Z,12.03
2018-07-09T09:56:16.137Z,13.87
2018-07-09T09:58:45.748Z,14.77
2018-07-09T10:01:15.415Z,11.73
2018-07-09T10:03:44.962Z,13.33
2018-07-09T10:06:14.670Z,15.23
2018-07-09T10:08:44.492Z,10.43
2018-07-09T10:11:13.952Z,13.20
2018-07-09T10:13:43.548Z,13.87
2018-07-09T10:16:13.648Z,12.33
2018-07-09T10:18:43.640Z,11.97
2018-07-09T10:21:13.117Z,13.80
2018-07-09T10:23:43.176Z,11.93
2018-07-09T10:26:12.644Z,12.63
2018-07-09T10:28:42.027Z,12.43
2018-07-09T10:31:12.209Z,11.93
2018-07-09T10:33:42.190Z,9.93
2018-07-09T10:36:12.046Z,11.43
2018-07-09T10:38:41.861Z,13.03
2018-07-09T10:41:11.621Z,10.77
2018-07-09T10:43:41.489Z,10.17
2018-07-09T10:46:11.386Z,10.90
2018-07-09T10:48:41.381Z,12.30
2018-07-09T10:51:11.769Z,12.37
2018-07-09T10:53:42.027Z,9.73
2018-07-09T10:56:11.697Z,11.27
2018-07-09T10:58:41.198Z,10.53
2018-07-09T11:01:11.433Z,10.30
2018-07-09T11:03:41.465Z,10.67
2018-07-09T11:06:11.272Z,11.07
2018-07-09T11:08:41.212Z,10.03
2018-07-09T11:11:11.009Z,13.67
2018-07-09T11:13:40.520Z,10.53
2018-07-09T11:16:10.257Z,12.53
2018-07-09T11:18:40.071Z,11.30
2018-07-09T11:21:09.484Z,13.57
2018-07-09T11:23:39.113Z,11.40
2018-07-09T11:26:08.844Z,9.93
2018-07-09T11:28:38.213Z,10.97
2018-07-09T11:31:07.826Z,10.80
2018-07-09T11:33:37.362Z,9.30
2018-07-09T11:36:07.359Z,14.77
2018-07-09T11:38:36.951Z,13.00
2018-07-09T11:41:06.307Z,9.87
2018-07-09T11:43:35.663Z,12.07
2018-07-09T11:46:05.685Z,10.97
2018-07-09T11:48:35.397Z,10.00
2018-07-09T11:51:04.904Z,9.30
2018-07-09T11:53:34.511Z,11.33
2018-07-09T11:56:04.387Z,12.53
2018-07-09T11:58:34.079Z,9.83
2018-07-09T12:01:04.037Z,9.60
2018-07-09T12:03:34.124Z,8.53
2018-07-09T12:06:03.962Z,11.50
2018-07-09T12:08:33.591Z,10.80
2018-07-09T12:11:03.005Z,10.50
2018-07-09T12:13:32.612Z,14.60
2018-07-09T12:16:02.305Z,10.40
2018-07-09T12:18:32.229Z,11.67
2018-07-09T12:21:02.156Z,13.90
2018-07-09T12:23:31.577Z,9.73
2018-07-09T12:26:01.017Z,12.30
2018-07-09T12:28:30.587Z,10.80
2018-07-09T12:31:00.353Z,9.20
2018-07-09T12:33:29.664Z,10.47
2018-07-09T12:35:59.274Z,7.97
2018-07-09T12:38:28.880Z,10.30
2018-07-09T12:40:58.377Z,9.63
2018-07-09T12:43:28.079Z,8.60
2018-07-09T12:45:57.868Z,11.30
2018-07-09T12:48:27.689Z,8.90
2018-07-09T12:50:57.226Z,7.53
2018-07-09T12:53:27.715Z,10.50
2018-07-09T12:55:57.078Z,10.90
2018-07-09T12:58:26.713Z,9.10
2018-07-09T13:00:56.316Z,9.53
2018-07-09T13:04:29.043Z,13.87
2018-07-09T13:06:58.784Z,9.57
2018-07-09T13:09:28.454Z,10.60
2018-07-09T13:11:57.844Z,9.60
2018-07-09T13:14:27.532Z,10.77
2018-07-09T13:16:57.299Z,13.27
2018-07-09T13:19:26.744Z,10.80
2018-07-09T13:21:56.844Z,10.37
2018-07-09T13:24:26.924Z,9.03
2018-07-09T13:26:56.580Z,7.30
2018-07-09T13:29:26.512Z,10.77
2018-07-09T13:31:56.267Z,10.53
2018-07-09T13:34:26.157Z,10.23
2018-07-09T13:36:56.299Z,10.20
2018-07-09T13:39:26.134Z,12.43
2018-07-09T13:41:55.866Z,7.30
2018-07-09T13:44:26.203Z,9.60
2018-07-09T13:46:56.124Z,10.43
2018-07-09T13:49:26.463Z,8.50
2018-07-09T13:51:56.060Z,10.67
2018-07-09T13:54:26.211Z,8.03
2018-07-09T13:56:56.391Z,10.33
2018-07-09T13:59:26.080Z,10.20
2018-07-09T14:01:55.960Z,9.83
2018-07-09T14:04:25.830Z,8.57
2018-07-09T14:06:55.464Z,9.43
2018-07-09T14:09:25.239Z,6.87
2018-07-09T14:11:55.475Z,10.23
2018-07-09T14:14:25.157Z,8.20
2018-07-09T14:16:54.868Z,11.23
2018-07-09T14:20:37.761Z,11.50
2018-07-09T14:23:08.446Z,8.30
2018-07-09T14:25:38.370Z,8.07
2018-07-09T14:28:08.159Z,5.37
2018-07-09T14:30:37.679Z,7.43
2018-07-09T14:33:07.550Z,7.77
2018-07-09T14:35:37.291Z,6.40
2018-07-09T14:38:06.859Z,10.77
2018-07-09T14:40:36.430Z,4.93
2018-07-09T14:43:06.025Z,6.50
2018-07-09T14:45:35.529Z,7.57
2018-07-09T14:48:05.387Z,5.47
2018-07-09T14:50:35.223Z,4.37
2018-07-09T14:53:04.651Z,5.90
2018-07-09T14:55:34.466Z,7.43
2018-07-09T14:58:04.237Z,5.17
2018-07-09T15:00:33.967Z,5.70
2018-07-09T15:03:04.353Z,5.97
2018-07-09T15:05:34.323Z,4.07
2018-07-09T15:08:03.975Z,3.77
2018-07-09T15:10:34.184Z,4.47
2018-07-09T15:13:03.719Z,4.73
2018-07-09T15:15:33.303Z,4.43
2018-07-09T15:18:03.395Z,3.43
2018-07-09T15:20:33.144Z,3.47
2018-07-09T15:23:03.230Z,4.47
2018-07-09T15:25:33.102Z,4.93
2018-07-09T15:28:03.077Z,4.67
2018-07-09T15:30:32.996Z,3.70
2018-07-09T15:33:02.690Z,5.80
2018-07-09T15:35:32.085Z,6.30
2018-07-09T15:38:01.885Z,5.57
2018-07-09T15:40:31.627Z,4.10
2018-07-09T15:43:01.175Z,4.43
2018-07-09T15:45:31.141Z,4.80
2018-07-09T15:48:00.701Z,6.67
2018-07-09T15:50:30.183Z,4.00
2018-07-09T15:52:59.893Z,4.87
2018-07-09T15:55:29.683Z,5.37
2018-07-09T15:57:58.986Z,6.73
2018-07-09T16:00:28.703Z,9.40
2018-07-09T16:02:58.609Z,5.30
2018-07-09T16:05:29.065Z,7.40
2018-07-09T16:07:58.921Z,4.93
2018-07-09T16:10:28.565Z,4.27
2018-07-09T16:12:58.126Z,5.33
2018-07-09T16:15:27.778Z,3.73
2018-07-09T16:17:57.640Z,4.00
2018-07-09T16:20:27.169Z,7.03
2018-07-09T16:22:57.066Z,6.33
2018-07-09T16:25:26.719Z,5.97
2018-07-09T16:27:56.734Z,5.00
2018-07-09T16:30:26.165Z,6.67
2018-07-09T16:32:55.769Z,7.07
2018-07-09T16:35:25.309Z,8.90
2018-07-09T16:37:54.869Z,3.93
2018-07-09T16:40:24.708Z,4.53
2018-07-09T16:42:54.512Z,8.23
2018-07-09T16:45:24.295Z,9.33
2018-07-09T16:47:54.327Z,5.87
2018-07-09T16:50:24.342Z,5.00
2018-07-09T16:52:53.683Z,5.07
2018-07-09T16:55:23.359Z,7.80
2018-07-09T16:57:52.965Z,6.40
2018-07-09T17:00:22.468Z,6.23
2018-07-09T17:02:52.072Z,5.57
2018-07-09T17:05:21.837Z,7.03
2018-07-09T17:07:51.400Z,6.30
2018-07-09T17:10:21.172Z,8.77
2018-07-09T17:12:50.883Z,6.50
2018-07-09T17:15:20.382Z,4.90
2018-07-09T17:17:50.159Z,5.03
2018-07-09T17:20:20.076Z,5.13
2018-07-09T17:22:49.767Z,5.40
2018-07-09T17:25:19.708Z,7.97
2018-07-09T17:27:49.295Z,7.70
2018-07-09T17:30:19.069Z,7.40
2018-07-09T17:32:48.670Z,7.00
2018-07-09T17:35:18.096Z,9.67
2018-07-09T17:37:48.391Z,10.00
2018-07-09T17:40:18.299Z,8.17
2018-07-09T17:42:48.095Z,8.10
2018-07-09T17:45:17.873Z,10.07
2018-07-09T17:47:47.811Z,8.70
2018-07-09T17:50:17.797Z,13.27
2018-07-09T17:52:47.476Z,9.27
2018-07-09T17:55:17.313Z,6.10
2018-07-09T17:57:47.784Z,9.70
2018-07-09T18:00:17.718Z,7.53
2018-07-09T18:02:48.051Z,7.80
2018-07-09T18:05:17.660Z,5.97
2018-07-09T18:07:47.375Z,5.40
2018-07-09T18:10:17.462Z,6.83
2018-07-09T18:12:47.368Z,6.07
2018-07-09T18:15:17.716Z,7.57
2018-07-09T18:17:47.769Z,7.10
2018-07-09T18:20:17.532Z,7.37
2018-07-09T18:22:47.390Z,6.17
2018-07-09T18:25:17.962Z,9.50
2018-07-09T18:27:47.394Z,7.80
2018-07-09T18:30:27.208Z,6.73
2018-07-09T18:33:00.221Z,6.20
2018-07-09T18:35:30.365Z,4.50
2018-07-09T18:38:00.197Z,7.33
2018-07-09T18:40:29.567Z,8.03
2018-07-09T18:42:59.275Z,6.97
2018-07-09T18:45:28.838Z,7.53
2018-07-09T18:47:58.411Z,9.10
2018-07-09T18:50:28.176Z,4.33
2018-07-09T18:52:57.742Z,6.57
2018-07-09T18:55:27.714Z,7.40
2018-07-09T18:57:57.288Z,7.13
2018-07-09T19:00:26.851Z,6.47
2018-07-09T19:02:56.679Z,5.90
2018-07-09T19:05:33.110Z,6.03
2018-07-09T19:08:03.222Z,6.60
2018-07-09T19:10:33.290Z,6.57
2018-07-09T19:13:03.025Z,6.80
2018-07-09T19:15:32.994Z,5.67
2018-07-09T19:18:18.544Z,6.23
2018-07-09T19:21:33.598Z,6.03
2018-07-09T19:24:02.226Z,6.37
2018-07-09T19:26:30.045Z,7.50
2018-07-09T19:28:58.316Z,5.80
2018-07-09T19:31:26.630Z,7.37
2018-07-09T19:33:55.199Z,5.23
2018-07-09T19:36:23.502Z,5.20
2018-07-09T19:38:51.495Z,6.20
2018-07-09T19:41:19.862Z,4.73
2018-07-09T19:43:47.716Z,5.37
2018-07-09T19:46:15.698Z,5.90
2018-07-09T19:48:43.981Z,3.63
2018-07-09T19:51:11.777Z,7.30
2018-07-09T19:53:39.852Z,3.67
2018-07-09T19:56:08.431Z,3.77
2018-07-09T19:58:36.539Z,5.63
2018-07-09T20:01:04.534Z,5.23
2018-07-09T20:03:32.386Z,3.40
2018-07-09T20:06:01.052Z,3.60
2018-07-09T20:08:33.804Z,3.20
2018-07-09T20:11:06.693Z,4.07
2018-07-09T20:14:08.786Z,2.80
2018-07-09T20:16:41.789Z,4.47
2018-07-09T20:19:09.813Z,3.07
2018-07-09T20:21:37.798Z,2.70
2018-07-09T20:24:05.525Z,4.30
2018-07-09T20:26:33.850Z,3.00
2018-07-09T20:29:02.046Z,3.20
2018-07-09T20:31:29.683Z,3.13
2018-07-09T20:33:57.561Z,4.40
2018-07-09T20:36:25.700Z,2.77
2018-07-09T20:38:54.489Z,4.23
2018-07-09T20:41:22.563Z,2.43
2018-07-09T20:43:50.696Z,3.17
2018-07-09T20:46:18.529Z,3.37
2018-07-09T20:48:46.356Z,5.50
2018-07-09T20:51:16.180Z,3.37
2018-07-09T20:53:44.090Z,2.97
2018-07-09T20:56:12.254Z,2.57
2018-07-09T20:58:40.208Z,4.23
2018-07-09T21:01:08.259Z,3.10
2018-07-09T21:03:36.223Z,5.07
2018-07-09T21:06:04.245Z,4.20
2018-07-09T21:08:32.356Z,3.80
2018-07-09T21:11:01.380Z,3.87
2018-07-09T21:13:31.600Z,4.33
2018-07-09T21:15:59.737Z,4.20
2018-07-09T21:18:27.702Z,4.47
2018-07-09T21:20:55.919Z,5.43
2018-07-09T21:23:23.875Z,3.00
2018-07-09T21:25:52.244Z,4.30
2018-07-09T21:28:20.380Z,2.60
2018-07-09T21:30:48.248Z,5.00
2018-07-09T21:33:16.364Z,5.23
2018-07-09T21:35:44.220Z,3.17
2018-07-09T21:38:12.253Z,3.30
2018-07-09T21:40:40.409Z,3.00
2018-07-09T21:43:08.385Z,3.40
2018-07-09T21:45:36.203Z,4.83
2018-07-09T21:48:10.556Z,2.80
2018-07-09T21:50:32.700Z,2.57
2018-07-09T21:53:00.455Z,3.27
2018-07-09T21:55:28.630Z,2.87
2018-07-09T21:57:56.903Z,3.73
2018-07-09T22:00:24.663Z,2.87
2018-07-09T22:02:52.602Z,4.57
2018-07-09T22:05:20.670Z,2.77
2018-07-09T22:07:48.557Z,2.90
2018-07-09T22:10:16.374Z,2.60
2018-07-09T22:12:44.370Z,4.33
2018-07-09T22:15:12.338Z,4.30
2018-07-09T22:17:40.818Z,3.40
2018-07-09T22:20:09.095Z,2.67
2018-07-09T22:22:36.966Z,3.33
2018-07-09T22:25:05.244Z,4.07
2018-07-09T22:27:33.517Z,3.90
2018-07-09T22:30:01.306Z,3.50
2018-07-09T22:32:30.990Z,3.30
2018-07-09T22:35:00.942Z,3.27
2018-07-09T22:37:30.728Z,2.87
2018-07-09T22:40:00.183Z,4.43
2018-07-09T22:42:29.871Z,4.90
2018-07-09T22:44:59.612Z,2.80
2018-07-09T22:47:29.083Z,3.07
2018-07-09T22:49:58.872Z,4.73
2018-07-09T22:52:28.669Z,3.30
2018-07-09T22:56:10.667Z,4.27
2018-07-09T22:58:41.511Z,4.33
2018-07-09T23:01:11.155Z,6.73
2018-07-09T23:03:40.776Z,3.30
2018-07-09T23:06:09.997Z,3.33
2018-07-09T23:08:39.754Z,3.73
2018-07-09T23:11:20.133Z,4.83
2018-07-09T23:14:59.369Z,4.37
2018-07-09T23:17:39.689Z,3.90
2018-07-09T23:22:24.933Z,4.10
2018-07-09T23:24:53.016Z,5.13
2018-07-09T23:27:20.911Z,4.93
2018-07-09T23:29:48.782Z,5.33
2018-07-09T23:32:16.953Z,4.23
2018-07-09T23:34:45.023Z,4.63
2018-07-09T23:37:13.000Z,4.50
2018-07-09T23:39:41.038Z,3.50
2018-07-09T23:42:08.936Z,5.27
2018-07-09T23:44:36.897Z,4.90
2018-07-09T23:47:05.073Z,3.10
2018-07-09T23:49:33.094Z,3.73
2018-07-09T23:52:00.830Z,4.20
2018-07-09T23:54:29.120Z,2.60
2018-07-09T23:58:12.981Z,3.73
